saint omer (62) - B

Date : 09/09/2012
Distance : 2,300 km

Place Nom Licence Catégorie Club Temps min/km CN à J-60 Points Différence Nouveau CN
1 LOTERIE Laurine 7045 D20 5907NO 0:15:27 6'43 6130 5263 -867 5953
2 DESRUMAUX Marie 14227 D21 5906NO 0:16:26 7'08 5373 4948 -425 5349
3 GERBEAUX Nathanaëlle 18312 D20 7807IF 0:17:37 7'39 6096 4616 -1480 5678
4 SANCHEZ Marlene 15247 D35 6208NO 0:17:44 7'42 4375 4585 +210 4335
5 LAMINETTE Pauline 14911 D20 5907NO 0:17:52 7'46 4182 4551 +369 4341
6 VADUREL Pauline 19241 D21 5907NO 0:18:07 7'52 4978 4488 -490 4978
7 FINAS Celine 8445 D21 5907NO 0:18:15 7'56 5131 4455 -676 4950
8 DESRUMAUX Celine 15795 D35 5906NO 0:18:45 8'09 4413 4337 -76 4394
9 MERCIER Agnès 23079 D21 5907NO 0:19:52 8'38 4606 4093 -513 4606
10 ROBYN Laurence 10766 D40 5906NO 0:19:54 8'39 4689 4086 -603 4689
11 VANDOMME Elodie 23560 D21 6208NO 0:20:02 8'42 3966 4059 +93 4066
12 ROLIN Charlotte 23947 D35 6208NO 0:20:16 8'48 3572 4012 +440 3419
13 DUBREUCQ Marie 25100 D21 5906NO 0:20:48 9'02 3754 3909 +155 4027
14 ASTOLFI Judith 21418 D40 5909NO 0:20:58 9'06 3760 3878 +118 3793
15 DURIEZ Caroline 24170 D21 6208NO 0:21:13 9'13 3849 3832 -17 3851
16 CIRAUDO Andrea 15582 D20 5907NO 0:21:42 9'26 3798 3747 -51 3882
17 ROUX Catherine 13270 D40 6205NO 0:22:39 9'50 4288 3590 -698 4288
18 SMIRNOV Alexandra 9631 D21 5906NO 0:22:44 9'53 3577 0
19 LANQUETIN Céline 18611 D20 5907NO 0:22:51 9'56 3506 3558 +52 3425
20 GOURLAIN Marguerite-marie 19155 D40 6205NO 0:23:03 10'01 3251 3528 +277 2943
21 BOULANGER Isabelle 10639 D55 5907NO 0:24:26 10'37 3366 3328 -38 3373
22 PRUVOST Virginie 25881 D40 6208NO 0:24:42 10'44 1949 3292 +1343 2085
23 VIEQUE Karine 25018 D35 6208NO 0:26:09 11'22 3638 3109 -529 3638
24 PECQUEUR Sylvie 20425 D50 5906NO 0:27:00 11'44 2782 3012 +230 2918
25 DESSAILLY Aurélie 26339 D35 5909NO 0:27:28 11'56 1375 2960 +1585 1593
26 LAMINETTE M-Odile 17201 D50 5907NO 0:28:18 12'18 2605 2873 +268 2753
27 BOUCHEZ Marie-Pascale 24241 D40 6208NO 0:30:11 13'07 2548 2694 +146 1619
28 POULAIN Odile 1948 D50 5908NO 0:31:45 13'48 3401 2561 -840 3274
29 MIGNEAULT Francine 25523 D21 5906NO 0:32:16 14'01 0 2520 2419
30 CLAVEL Nathalie 22803 D40 5907NO 0:33:28 14'33 2326 2430 +104 2383
31 TORZ-DRUON Magali 10081 D60 5906NO 0:34:40 15'04 2550 2346 -204 2384
32 SZYMANOWSKI Catherine 14664 D45 6208NO 0:35:04 15'14 1531 2319 +788 1706
33 BEN KHALED Isabelle 13761 D55 5908NO 0:35:10 15'17 2176 2312 +136 2021
34 KALAIDINA Elizaveta 26568 D21 5906NO 0:35:18 15'20 2303 0
35 JUDAS Sylvaine 13635 D55 6208NO 0:37:54 16'28 2266 2145 -121 1993
36 BELLENGIER Sabine 25381 D35 6208NO 0:40:26 17'34 1409 2011 +602 1650
37 MINET Sylvaine 25878 D40 6208NO 0:43:50 19'03 1699 1855 +156 1774
38 RIMETZ Marcelline 22235 D60 6208NO 0:46:33 20'14 2164 1747 -417 2164
39 LUDEWIG-JAMES Carol 15894 D70 5907NO 0:49:21 21'27 2388 1648 -740 2388
40 GERBEAUX Marie-jeanne 22417 D55 6205NO 0:51:51 22'32 3486 1568 -1918 3486